Flugplatz Altenburg-Nobitz

Bericht für EDAC

vom 28.09. um 22:50 UTC

Wind 1 kt aus 150°

Sichtweite 4000 m

aufgebrochene Bewölkung in 3700 ft

bedeckt in 21000 ft

Temperatur 10.0°C

Taupunkt 9.0°C

Luftfeuchtigkeit 93%

Luftdruck 1020 hPa

EDAC 282250Z AUTO 15001KT 4000 // BKN037/// OVC210/// 10/09 Q1020

Prognose für EDAC

vom 28.09. um 17:00 UTC

Am 28.09. zwischen 18:00 UTC und 21:00 UTC

variable Windrichtung mit 2 kt

Sichtweite 10 km oder mehr

gering bewölkt in 2000 ft


Am 28.09. zwischen 21:00 und 23:00 UTC übergehend zu

variable Windrichtung mit 2 kt

Sichtweite 4000 m

feuchter Dunst

gering bewölkt in 2000 ft

TAF EDAC 281700Z 2818/2903 VRB02KT 9999 FEW020 BECMG 2821/2823 4000 BR
Impressum